sensor_id;sensor_type;location;lat;lon;timestamp;P1;durP1;ratioP1;P2;durP2;ratioP2
13329;SDS011;6734;48.638;8.896;2022-09-01T00:02:06;17.70;;;13.53;;
13329;SDS011;6734;48.638;8.896;2022-09-01T00:04:36;18.03;;;12.70;;
13329;SDS011;6734;48.638;8.896;2022-09-01T00:07:03;19.97;;;13.33;;
13329;SDS011;6734;48.638;8.896;2022-09-01T00:09:29;19.17;;;14.43;;
13329;SDS011;6734;48.638;8.896;2022-09-01T00:11:55;16.83;;;12.90;;
13329;SDS011;6734;48.638;8.896;2022-09-01T00:14:23;18.90;;;13.20;;
13329;SDS011;6734;48.638;8.896;2022-09-01T00:16:49;19.63;;;13.43;;
13329;SDS011;6734;48.638;8.896;2022-09-01T00:19:15;17.83;;;13.83;;
13329;SDS011;6734;48.638;8.896;2022-09-01T00:21:43;17.47;;;13.43;;
13329;SDS011;6734;48.638;8.896;2022-09-01T00:24:09;18.87;;;13.17;;
13329;SDS011;6734;48.638;8.896;2022-09-01T00:26:36;15.13;;;12.37;;
13329;SDS011;6734;48.638;8.896;2022-09-01T00:29:03;18.70;;;13.27;;
13329;SDS011;6734;48.638;8.896;2022-09-01T00:31:29;19.30;;;14.40;;
13329;SDS011;6734;48.638;8.896;2022-09-01T00:33:55;18.97;;;14.20;;
13329;SDS011;6734;48.638;8.896;2022-09-01T00:36:21;18.57;;;12.90;;
13329;SDS011;6734;48.638;8.896;2022-09-01T00:38:47;20.47;;;13.80;;
13329;SDS011;6734;48.638;8.896;2022-09-01T00:41:14;17.60;;;12.40;;
13329;SDS011;6734;48.638;8.896;2022-09-01T00:43:47;15.27;;;12.47;;
13329;SDS011;6734;48.638;8.896;2022-09-01T00:46:17;17.73;;;11.93;;
13329;SDS011;6734;48.638;8.896;2022-09-01T00:48:43;19.30;;;12.83;;
13329;SDS011;6734;48.638;8.896;2022-09-01T00:51:10;23.20;;;13.17;;
13329;SDS011;6734;48.638;8.896;2022-09-01T00:53:37;19.73;;;13.47;;
13329;SDS011;6734;48.638;8.896;2022-09-01T00:56:05;21.27;;;13.33;;
13329;SDS011;6734;48.638;8.896;2022-09-01T00:58:32;19.43;;;13.03;;
13329;SDS011;6734;48.638;8.896;2022-09-01T01:00:59;19.03;;;12.70;;
13329;SDS011;6734;48.638;8.896;2022-09-01T01:03:26;25.30;;;15.43;;
13329;SDS011;6734;48.638;8.896;2022-09-01T01:05:54;21.43;;;14.47;;
13329;SDS011;6734;48.638;8.896;2022-09-01T01:08:28;24.83;;;15.77;;
13329;SDS011;6734;48.638;8.896;2022-09-01T01:10:58;26.87;;;15.40;;
13329;SDS011;6734;48.638;8.896;2022-09-01T01:13:25;36.07;;;17.10;;
13329;SDS011;6734;48.638;8.896;2022-09-01T01:15:56;26.77;;;15.93;;
13329;SDS011;6734;48.638;8.896;2022-09-01T01:18:24;41.40;;;17.90;;
13329;SDS011;6734;48.638;8.896;2022-09-01T01:21:03;30.20;;;18.87;;
13329;SDS011;6734;48.638;8.896;2022-09-01T01:24:07;45.20;;;17.70;;
13329;SDS011;6734;48.638;8.896;2022-09-01T01:26:56;37.70;;;18.17;;
13329;SDS011;6734;48.638;8.896;2022-09-01T01:29:30;47.17;;;19.87;;
13329;SDS011;6734;48.638;8.896;2022-09-01T01:31:57;47.17;;;20.77;;
13329;SDS011;6734;48.638;8.896;2022-09-01T01:34:24;55.30;;;20.30;;
13329;SDS011;6734;48.638;8.896;2022-09-01T01:36:50;34.33;;;20.27;;
13329;SDS011;6734;48.638;8.896;2022-09-01T01:39:17;33.83;;;20.73;;
13329;SDS011;6734;48.638;8.896;2022-09-01T01:41:51;35.03;;;19.63;;
13329;SDS011;6734;48.638;8.896;2022-09-01T01:44:22;29.97;;;20.03;;
13329;SDS011;6734;48.638;8.896;2022-09-01T01:46:49;27.83;;;19.27;;
13329;SDS011;6734;48.638;8.896;2022-09-01T01:49:18;32.83;;;20.70;;
13329;SDS011;6734;48.638;8.896;2022-09-01T01:51:46;40.13;;;20.67;;
13329;SDS011;6734;48.638;8.896;2022-09-01T01:54:13;32.63;;;18.60;;
13329;SDS011;6734;48.638;8.896;2022-09-01T01:56:39;36.10;;;21.57;;
13329;SDS011;6734;48.638;8.896;2022-09-01T01:59:07;36.23;;;20.87;;
13329;SDS011;6734;48.638;8.896;2022-09-01T02:01:35;44.00;;;22.53;;
13329;SDS011;6734;48.638;8.896;2022-09-01T02:04:02;31.47;;;19.77;;
13329;SDS011;6734;48.638;8.896;2022-09-01T02:06:31;31.73;;;19.87;;
13329;SDS011;6734;48.638;8.896;2022-09-01T02:08:58;31.10;;;19.37;;
13329;SDS011;6734;48.638;8.896;2022-09-01T02:11:27;46.47;;;21.00;;
13329;SDS011;6734;48.638;8.896;2022-09-01T02:13:53;38.93;;;19.97;;
13329;SDS011;6734;48.638;8.896;2022-09-01T02:16:21;42.27;;;21.70;;
13329;SDS011;6734;48.638;8.896;2022-09-01T02:18:47;30.03;;;20.17;;
13329;SDS011;6734;48.638;8.896;2022-09-01T02:21:14;35.40;;;20.67;;
13329;SDS011;6734;48.638;8.896;2022-09-01T02:23:44;27.47;;;17.93;;
13329;SDS011;6734;48.638;8.896;2022-09-01T02:26:12;33.90;;;20.17;;
13329;SDS011;6734;48.638;8.896;2022-09-01T02:28:40;23.33;;;17.00;;
13329;SDS011;6734;48.638;8.896;2022-09-01T02:31:07;28.10;;;16.27;;
13329;SDS011;6734;48.638;8.896;2022-09-01T02:33:35;22.93;;;17.33;;
13329;SDS011;6734;48.638;8.896;2022-09-01T02:36:07;22.70;;;15.17;;
13329;SDS011;6734;48.638;8.896;2022-09-01T02:38:33;22.40;;;15.93;;
13329;SDS011;6734;48.638;8.896;2022-09-01T02:41:00;26.60;;;17.47;;
13329;SDS011;6734;48.638;8.896;2022-09-01T02:43:27;23.40;;;17.47;;
13329;SDS011;6734;48.638;8.896;2022-09-01T02:45:56;26.50;;;17.50;;
13329;SDS011;6734;48.638;8.896;2022-09-01T02:48:24;23.03;;;17.23;;
13329;SDS011;6734;48.638;8.896;2022-09-01T02:50:56;29.57;;;18.90;;
13329;SDS011;6734;48.638;8.896;2022-09-01T02:53:23;29.27;;;18.20;;
13329;SDS011;6734;48.638;8.896;2022-09-01T02:55:49;25.40;;;17.00;;
13329;SDS011;6734;48.638;8.896;2022-09-01T02:58:15;24.97;;;18.00;;
13329;SDS011;6734;48.638;8.896;2022-09-01T03:00:44;21.60;;;15.80;;
13329;SDS011;6734;48.638;8.896;2022-09-01T03:03:11;25.20;;;17.87;;
13329;SDS011;6734;48.638;8.896;2022-09-01T03:05:36;20.40;;;15.30;;
13329;SDS011;6734;48.638;8.896;2022-09-01T03:08:08;27.07;;;18.50;;
13329;SDS011;6734;48.638;8.896;2022-09-01T03:10:35;26.73;;;18.50;;
13329;SDS011;6734;48.638;8.896;2022-09-01T03:13:05;22.90;;;16.53;;
13329;SDS011;6734;48.638;8.896;2022-09-01T03:15:34;24.47;;;17.00;;
13329;SDS011;6734;48.638;8.896;2022-09-01T03:18:01;27.23;;;19.43;;
13329;SDS011;6734;48.638;8.896;2022-09-01T03:20:28;25.23;;;17.37;;
13329;SDS011;6734;48.638;8.896;2022-09-01T03:22:57;20.47;;;16.00;;
13329;SDS011;6734;48.638;8.896;2022-09-01T03:25:24;22.20;;;16.50;;
13329;SDS011;6734;48.638;8.896;2022-09-01T03:27:51;32.50;;;18.77;;
13329;SDS011;6734;48.638;8.896;2022-09-01T03:30:18;25.60;;;19.00;;
13329;SDS011;6734;48.638;8.896;2022-09-01T03:32:45;30.23;;;20.07;;
13329;SDS011;6734;48.638;8.896;2022-09-01T03:35:12;27.60;;;19.43;;
13329;SDS011;6734;48.638;8.896;2022-09-01T03:37:37;26.87;;;18.80;;
13329;SDS011;6734;48.638;8.896;2022-09-01T03:40:04;54.27;;;20.70;;
13329;SDS011;6734;48.638;8.896;2022-09-01T03:42:32;42.57;;;19.37;;
13329;SDS011;6734;48.638;8.896;2022-09-01T03:44:59;32.77;;;19.60;;
13329;SDS011;6734;48.638;8.896;2022-09-01T03:47:36;27.50;;;17.27;;
13329;SDS011;6734;48.638;8.896;2022-09-01T03:50:04;31.03;;;18.07;;
13329;SDS011;6734;48.638;8.896;2022-09-01T03:52:33;28.50;;;18.10;;
13329;SDS011;6734;48.638;8.896;2022-09-01T03:54:58;29.50;;;17.90;;
13329;SDS011;6734;48.638;8.896;2022-09-01T03:57:24;23.47;;;16.07;;
13329;SDS011;6734;48.638;8.896;2022-09-01T03:59:52;21.30;;;14.07;;
13329;SDS011;6734;48.638;8.896;2022-09-01T04:02:18;23.10;;;15.50;;
13329;SDS011;6734;48.638;8.896;2022-09-01T04:04:45;18.20;;;13.83;;
13329;SDS011;6734;48.638;8.896;2022-09-01T04:07:11;20.43;;;14.50;;
13329;SDS011;6734;48.638;8.896;2022-09-01T04:09:37;19.37;;;14.20;;
13329;SDS011;6734;48.638;8.896;2022-09-01T04:12:04;21.40;;;15.13;;
13329;SDS011;6734;48.638;8.896;2022-09-01T04:14:33;22.67;;;14.93;;
13329;SDS011;6734;48.638;8.896;2022-09-01T04:16:59;20.80;;;14.80;;
13329;SDS011;6734;48.638;8.896;2022-09-01T04:19:43;23.80;;;17.17;;
13329;SDS011;6734;48.638;8.896;2022-09-01T04:22:09;24.57;;;17.57;;
13329;SDS011;6734;48.638;8.896;2022-09-01T04:24:37;69.10;;;19.90;;
13329;SDS011;6734;48.638;8.896;2022-09-01T04:27:09;80.90;;;20.00;;
13329;SDS011;6734;48.638;8.896;2022-09-01T04:29:35;62.17;;;21.23;;
13329;SDS011;6734;48.638;8.896;2022-09-01T04:32:06;42.80;;;22.90;;
13329;SDS011;6734;48.638;8.896;2022-09-01T04:34:34;94.03;;;20.97;;
13329;SDS011;6734;48.638;8.896;2022-09-01T04:37:11;43.90;;;22.03;;
13329;SDS011;6734;48.638;8.896;2022-09-01T04:39:39;41.30;;;18.83;;
13329;SDS011;6734;48.638;8.896;2022-09-01T04:42:12;55.73;;;20.90;;
13329;SDS011;6734;48.638;8.896;2022-09-01T04:44:38;60.00;;;20.60;;
13329;SDS011;6734;48.638;8.896;2022-09-01T04:47:04;52.53;;;21.47;;
13329;SDS011;6734;48.638;8.896;2022-09-01T04:49:35;32.63;;;20.27;;
13329;SDS011;6734;48.638;8.896;2022-09-01T04:52:02;41.47;;;18.73;;
13329;SDS011;6734;48.638;8.896;2022-09-01T04:54:27;28.53;;;18.67;;
13329;SDS011;6734;48.638;8.896;2022-09-01T04:56:56;24.60;;;17.37;;
13329;SDS011;6734;48.638;8.896;2022-09-01T04:59:23;34.73;;;19.13;;
13329;SDS011;6734;48.638;8.896;2022-09-01T05:01:51;26.17;;;17.80;;
13329;SDS011;6734;48.638;8.896;2022-09-01T05:04:20;26.27;;;18.00;;
13329;SDS011;6734;48.638;8.896;2022-09-01T05:06:49;27.27;;;18.83;;
13329;SDS011;6734;48.638;8.896;2022-09-01T05:09:21;21.60;;;16.37;;
13329;SDS011;6734;48.638;8.896;2022-09-01T05:11:49;24.03;;;17.57;;
13329;SDS011;6734;48.638;8.896;2022-09-01T05:14:15;20.93;;;14.77;;
13329;SDS011;6734;48.638;8.896;2022-09-01T05:16:44;23.77;;;16.23;;
13329;SDS011;6734;48.638;8.896;2022-09-01T05:19:10;19.77;;;14.57;;
13329;SDS011;6734;48.638;8.896;2022-09-01T05:21:39;22.17;;;15.00;;
13329;SDS011;6734;48.638;8.896;2022-09-01T05:24:09;20.57;;;14.57;;
13329;SDS011;6734;48.638;8.896;2022-09-01T05:26:35;21.43;;;14.97;;
13329;SDS011;6734;48.638;8.896;2022-09-01T05:29:03;23.37;;;15.73;;
13329;SDS011;6734;48.638;8.896;2022-09-01T05:31:34;20.10;;;14.97;;
13329;SDS011;6734;48.638;8.896;2022-09-01T05:34:02;19.93;;;14.07;;
13329;SDS011;6734;48.638;8.896;2022-09-01T05:36:28;20.00;;;14.43;;
13329;SDS011;6734;48.638;8.896;2022-09-01T05:38:57;21.47;;;15.17;;
13329;SDS011;6734;48.638;8.896;2022-09-01T05:41:24;17.57;;;12.80;;
13329;SDS011;6734;48.638;8.896;2022-09-01T05:43:50;18.43;;;12.97;;
13329;SDS011;6734;48.638;8.896;2022-09-01T05:46:20;16.50;;;12.63;;
13329;SDS011;6734;48.638;8.896;2022-09-01T05:48:48;16.10;;;11.07;;
13329;SDS011;6734;48.638;8.896;2022-09-01T05:51:16;15.30;;;11.93;;
13329;SDS011;6734;48.638;8.896;2022-09-01T05:53:44;16.90;;;13.43;;
13329;SDS011;6734;48.638;8.896;2022-09-01T05:56:11;17.13;;;12.63;;
13329;SDS011;6734;48.638;8.896;2022-09-01T05:58:37;21.67;;;14.53;;
13329;SDS011;6734;48.638;8.896;2022-09-01T06:01:04;20.57;;;13.60;;
13329;SDS011;6734;48.638;8.896;2022-09-01T06:03:31;19.47;;;15.07;;
13329;SDS011;6734;48.638;8.896;2022-09-01T06:06:04;21.40;;;15.70;;
13329;SDS011;6734;48.638;8.896;2022-09-01T06:08:36;18.70;;;13.60;;
13329;SDS011;6734;48.638;8.896;2022-09-01T06:11:02;22.00;;;14.10;;
13329;SDS011;6734;48.638;8.896;2022-09-01T06:13:36;23.63;;;16.83;;
13329;SDS011;6734;48.638;8.896;2022-09-01T06:16:06;19.53;;;14.50;;
13329;SDS011;6734;48.638;8.896;2022-09-01T06:18:32;20.63;;;13.70;;
13329;SDS011;6734;48.638;8.896;2022-09-01T06:20:58;21.50;;;16.63;;
13329;SDS011;6734;48.638;8.896;2022-09-01T06:23:24;19.47;;;14.97;;
13329;SDS011;6734;48.638;8.896;2022-09-01T06:25:50;19.17;;;14.60;;
13329;SDS011;6734;48.638;8.896;2022-09-01T06:28:16;23.97;;;17.23;;
13329;SDS011;6734;48.638;8.896;2022-09-01T06:30:45;21.10;;;16.13;;
13329;SDS011;6734;48.638;8.896;2022-09-01T06:33:12;20.90;;;15.37;;
13329;SDS011;6734;48.638;8.896;2022-09-01T06:35:38;20.87;;;15.23;;
13329;SDS011;6734;48.638;8.896;2022-09-01T06:38:06;22.17;;;16.37;;
13329;SDS011;6734;48.638;8.896;2022-09-01T06:40:36;28.90;;;19.03;;
13329;SDS011;6734;48.638;8.896;2022-09-01T06:43:03;21.97;;;16.70;;
13329;SDS011;6734;48.638;8.896;2022-09-01T06:45:32;23.67;;;16.63;;
13329;SDS011;6734;48.638;8.896;2022-09-01T06:47:58;22.07;;;15.40;;
13329;SDS011;6734;48.638;8.896;2022-09-01T06:50:25;19.73;;;13.90;;
13329;SDS011;6734;48.638;8.896;2022-09-01T06:52:51;20.10;;;14.53;;
13329;SDS011;6734;48.638;8.896;2022-09-01T06:55:34;18.70;;;13.17;;
13329;SDS011;6734;48.638;8.896;2022-09-01T06:58:07;15.50;;;12.17;;
13329;SDS011;6734;48.638;8.896;2022-09-01T07:00:36;22.17;;;15.10;;
13329;SDS011;6734;48.638;8.896;2022-09-01T07:03:10;19.37;;;14.30;;
13329;SDS011;6734;48.638;8.896;2022-09-01T07:05:38;18.33;;;12.73;;
13329;SDS011;6734;48.638;8.896;2022-09-01T07:08:06;17.10;;;12.73;;
13329;SDS011;6734;48.638;8.896;2022-09-01T07:10:38;19.93;;;13.70;;
13329;SDS011;6734;48.638;8.896;2022-09-01T07:13:09;22.17;;;16.23;;
13329;SDS011;6734;48.638;8.896;2022-09-01T07:15:37;15.97;;;12.57;;
13329;SDS011;6734;48.638;8.896;2022-09-01T07:18:03;16.00;;;12.70;;
13329;SDS011;6734;48.638;8.896;2022-09-01T07:20:30;20.13;;;14.80;;
13329;SDS011;6734;48.638;8.896;2022-09-01T07:23:03;18.97;;;13.90;;
13329;SDS011;6734;48.638;8.896;2022-09-01T07:25:30;20.43;;;15.03;;
13329;SDS011;6734;48.638;8.896;2022-09-01T07:28:00;20.57;;;14.47;;
13329;SDS011;6734;48.638;8.896;2022-09-01T07:30:26;21.00;;;14.60;;
13329;SDS011;6734;48.638;8.896;2022-09-01T07:32:53;16.30;;;12.73;;
13329;SDS011;6734;48.638;8.896;2022-09-01T07:35:19;18.83;;;12.93;;
13329;SDS011;6734;48.638;8.896;2022-09-01T07:37:46;17.87;;;13.50;;
13329;SDS011;6734;48.638;8.896;2022-09-01T07:40:13;16.30;;;10.93;;
13329;SDS011;6734;48.638;8.896;2022-09-01T07:42:43;16.23;;;12.07;;
13329;SDS011;6734;48.638;8.896;2022-09-01T07:45:13;16.30;;;10.67;;
13329;SDS011;6734;48.638;8.896;2022-09-01T07:47:41;15.50;;;11.80;;
13329;SDS011;6734;48.638;8.896;2022-09-01T07:50:08;14.73;;;11.57;;
13329;SDS011;6734;48.638;8.896;2022-09-01T07:52:35;15.23;;;8.93;;
13329;SDS011;6734;48.638;8.896;2022-09-01T07:55:06;14.53;;;11.67;;
13329;SDS011;6734;48.638;8.896;2022-09-01T07:57:39;15.97;;;11.40;;
13329;SDS011;6734;48.638;8.896;2022-09-01T08:00:07;13.67;;;11.17;;
13329;SDS011;6734;48.638;8.896;2022-09-01T08:02:35;13.87;;;10.20;;
13329;SDS011;6734;48.638;8.896;2022-09-01T08:05:03;14.87;;;10.77;;
13329;SDS011;6734;48.638;8.896;2022-09-01T08:07:33;16.53;;;11.40;;
13329;SDS011;6734;48.638;8.896;2022-09-01T08:10:00;14.43;;;10.87;;
13329;SDS011;6734;48.638;8.896;2022-09-01T08:12:27;15.70;;;10.60;;
13329;SDS011;6734;48.638;8.896;2022-09-01T08:14:53;14.57;;;10.90;;
13329;SDS011;6734;48.638;8.896;2022-09-01T08:17:18;15.03;;;11.07;;
13329;SDS011;6734;48.638;8.896;2022-09-01T08:19:45;12.70;;;9.53;;
13329;SDS011;6734;48.638;8.896;2022-09-01T08:22:11;14.90;;;9.87;;
13329;SDS011;6734;48.638;8.896;2022-09-01T08:24:37;11.33;;;8.70;;
13329;SDS011;6734;48.638;8.896;2022-09-01T08:27:04;11.73;;;8.43;;
13329;SDS011;6734;48.638;8.896;2022-09-01T08:29:30;11.63;;;8.10;;
13329;SDS011;6734;48.638;8.896;2022-09-01T08:31:55;8.77;;;7.33;;
13329;SDS011;6734;48.638;8.896;2022-09-01T08:34:23;10.70;;;7.37;;
13329;SDS011;6734;48.638;8.896;2022-09-01T08:36:49;9.93;;;7.07;;
13329;SDS011;6734;48.638;8.896;2022-09-01T08:39:15;10.80;;;7.67;;
13329;SDS011;6734;48.638;8.896;2022-09-01T08:46:57;9.73;;;6.37;;
13329;SDS011;6734;48.638;8.896;2022-09-01T08:49:27;6.53;;;5.73;;
13329;SDS011;6734;48.638;8.896;2022-09-01T08:55:21;9.73;;;6.70;;
13329;SDS011;6734;48.638;8.896;2022-09-01T08:57:35;9.33;;;7.60;;
13329;SDS011;6734;48.638;8.896;2022-09-01T09:00:06;8.93;;;6.17;;
13329;SDS011;6734;48.638;8.896;2022-09-01T09:05:25;7.17;;;5.30;;
13329;SDS011;6734;48.638;8.896;2022-09-01T09:08:02;7.70;;;5.40;;
13329;SDS011;6734;48.638;8.896;2022-09-01T09:16:11;7.17;;;5.57;;
13329;SDS011;6734;48.638;8.896;2022-09-01T09:18:51;7.93;;;5.37;;
13329;SDS011;6734;48.638;8.896;2022-09-01T09:21:34;6.97;;;4.70;;
13329;SDS011;6734;48.638;8.896;2022-09-01T09:24:25;6.87;;;5.30;;
13329;SDS011;6734;48.638;8.896;2022-09-01T09:27:15;6.77;;;5.57;;
13329;SDS011;6734;48.638;8.896;2022-09-01T09:32:21;6.90;;;5.63;;
13329;SDS011;6734;48.638;8.896;2022-09-01T09:34:48;8.07;;;5.00;;
13329;SDS011;6734;48.638;8.896;2022-09-01T09:39:40;7.97;;;5.20;;
13329;SDS011;6734;48.638;8.896;2022-09-01T09:42:07;5.10;;;4.60;;
13329;SDS011;6734;48.638;8.896;2022-09-01T09:44:42;6.53;;;4.87;;
13329;SDS011;6734;48.638;8.896;2022-09-01T09:52:36;6.07;;;4.93;;
13329;SDS011;6734;48.638;8.896;2022-09-01T09:55:03;5.83;;;5.10;;
13329;SDS011;6734;48.638;8.896;2022-09-01T09:57:42;6.17;;;4.87;;
13329;SDS011;6734;48.638;8.896;2022-09-01T10:02:58;5.80;;;5.00;;
13329;SDS011;6734;48.638;8.896;2022-09-01T10:05:35;5.57;;;4.83;;
13329;SDS011;6734;48.638;8.896;2022-09-01T10:08:10;7.30;;;5.20;;
13329;SDS011;6734;48.638;8.896;2022-09-01T10:10:41;5.90;;;5.30;;
13329;SDS011;6734;48.638;8.896;2022-09-01T10:13:14;6.60;;;5.67;;
13329;SDS011;6734;48.638;8.896;2022-09-01T10:15:49;6.03;;;4.80;;
13329;SDS011;6734;48.638;8.896;2022-09-01T10:18:19;7.27;;;5.03;;
13329;SDS011;6734;48.638;8.896;2022-09-01T10:20:55;4.90;;;4.40;;
13329;SDS011;6734;48.638;8.896;2022-09-01T10:23:30;6.53;;;4.77;;
13329;SDS011;6734;48.638;8.896;2022-09-01T10:26:43;4.67;;;3.87;;
13329;SDS011;6734;48.638;8.896;2022-09-01T10:28:52;5.73;;;5.13;;
13329;SDS011;6734;48.638;8.896;2022-09-01T10:31:23;5.33;;;4.27;;
13329;SDS011;6734;48.638;8.896;2022-09-01T10:33:48;4.73;;;4.27;;
13329;SDS011;6734;48.638;8.896;2022-09-01T10:36:15;5.47;;;4.23;;
13329;SDS011;6734;48.638;8.896;2022-09-01T10:38:41;4.37;;;3.97;;
13329;SDS011;6734;48.638;8.896;2022-09-01T10:41:08;4.87;;;4.10;;
13329;SDS011;6734;48.638;8.896;2022-09-01T10:48:45;4.83;;;3.87;;
13329;SDS011;6734;48.638;8.896;2022-09-01T10:53:42;5.30;;;4.57;;
13329;SDS011;6734;48.638;8.896;2022-09-01T10:59:26;6.20;;;4.10;;
13329;SDS011;6734;48.638;8.896;2022-09-01T11:04:19;5.03;;;4.13;;
13329;SDS011;6734;48.638;8.896;2022-09-01T11:09:47;4.33;;;3.63;;
13329;SDS011;6734;48.638;8.896;2022-09-01T11:15:40;4.33;;;3.30;;
13329;SDS011;6734;48.638;8.896;2022-09-01T11:18:08;3.67;;;3.37;;
13329;SDS011;6734;48.638;8.896;2022-09-01T11:21:12;3.93;;;3.30;;
13329;SDS011;6734;48.638;8.896;2022-09-01T11:23:48;3.90;;;3.10;;
13329;SDS011;6734;48.638;8.896;2022-09-01T11:28:58;3.90;;;3.60;;
13329;SDS011;6734;48.638;8.896;2022-09-01T11:31:34;4.10;;;3.70;;
13329;SDS011;6734;48.638;8.896;2022-09-01T11:44:10;4.07;;;3.67;;
13329;SDS011;6734;48.638;8.896;2022-09-01T11:46:47;4.33;;;3.53;;
13329;SDS011;6734;48.638;8.896;2022-09-01T11:49:38;3.80;;;3.30;;
13329;SDS011;6734;48.638;8.896;2022-09-01T11:52:04;3.37;;;3.07;;
13329;SDS011;6734;48.638;8.896;2022-09-01T11:54:37;3.67;;;3.00;;
13329;SDS011;6734;48.638;8.896;2022-09-01T11:57:39;3.30;;;3.00;;
13329;SDS011;6734;48.638;8.896;2022-09-01T11:59:58;3.70;;;3.37;;
13329;SDS011;6734;48.638;8.896;2022-09-01T12:02:28;3.13;;;2.93;;
13329;SDS011;6734;48.638;8.896;2022-09-01T12:04:57;3.03;;;2.70;;
13329;SDS011;6734;48.638;8.896;2022-09-01T12:07:41;3.40;;;3.10;;
13329;SDS011;6734;48.638;8.896;2022-09-01T12:10:59;3.47;;;3.17;;
13329;SDS011;6734;48.638;8.896;2022-09-01T12:13:01;2.87;;;2.67;;
13329;SDS011;6734;48.638;8.896;2022-09-01T12:15:27;3.50;;;2.67;;
13329;SDS011;6734;48.638;8.896;2022-09-01T12:18:07;3.00;;;2.70;;
13329;SDS011;6734;48.638;8.896;2022-09-01T12:20:34;3.37;;;2.43;;
13329;SDS011;6734;48.638;8.896;2022-09-01T12:23:03;2.97;;;2.40;;
13329;SDS011;6734;48.638;8.896;2022-09-01T12:25:46;2.73;;;2.50;;
13329;SDS011;6734;48.638;8.896;2022-09-01T12:28:12;2.90;;;2.57;;
13329;SDS011;6734;48.638;8.896;2022-09-01T12:30:40;3.63;;;3.00;;
13329;SDS011;6734;48.638;8.896;2022-09-01T12:33:07;3.20;;;2.90;;
13329;SDS011;6734;48.638;8.896;2022-09-01T12:35:35;3.23;;;2.93;;
13329;SDS011;6734;48.638;8.896;2022-09-01T12:40:52;2.90;;;2.60;;
13329;SDS011;6734;48.638;8.896;2022-09-01T12:43:26;3.30;;;2.80;;
13329;SDS011;6734;48.638;8.896;2022-09-01T12:45:53;2.57;;;2.37;;
13329;SDS011;6734;48.638;8.896;2022-09-01T12:50:56;4.77;;;2.77;;
13329;SDS011;6734;48.638;8.896;2022-09-01T12:53:24;3.10;;;2.80;;
13329;SDS011;6734;48.638;8.896;2022-09-01T12:55:56;2.73;;;2.53;;
13329;SDS011;6734;48.638;8.896;2022-09-01T12:58:28;2.90;;;2.50;;
13329;SDS011;6734;48.638;8.896;2022-09-01T13:00:56;2.73;;;2.53;;
13329;SDS011;6734;48.638;8.896;2022-09-01T13:03:29;2.57;;;2.37;;
13329;SDS011;6734;48.638;8.896;2022-09-01T13:05:56;3.30;;;2.50;;
13329;SDS011;6734;48.638;8.896;2022-09-01T13:08:25;2.80;;;2.60;;
13329;SDS011;6734;48.638;8.896;2022-09-01T13:10:57;2.70;;;2.50;;
13329;SDS011;6734;48.638;8.896;2022-09-01T13:13:26;2.70;;;2.50;;
13329;SDS011;6734;48.638;8.896;2022-09-01T13:15:53;2.47;;;2.27;;
13329;SDS011;6734;48.638;8.896;2022-09-01T13:18:23;2.77;;;2.57;;
13329;SDS011;6734;48.638;8.896;2022-09-01T13:20:50;3.23;;;2.93;;
13329;SDS011;6734;48.638;8.896;2022-09-01T13:23:17;4.10;;;2.70;;
13329;SDS011;6734;48.638;8.896;2022-09-01T13:25:43;3.57;;;3.20;;
13329;SDS011;6734;48.638;8.896;2022-09-01T13:28:10;2.90;;;2.63;;
13329;SDS011;6734;48.638;8.896;2022-09-01T13:30:36;3.30;;;2.93;;
13329;SDS011;6734;48.638;8.896;2022-09-01T13:33:02;2.63;;;2.40;;
13329;SDS011;6734;48.638;8.896;2022-09-01T13:35:28;2.80;;;2.60;;
13329;SDS011;6734;48.638;8.896;2022-09-01T13:37:54;2.57;;;2.37;;
13329;SDS011;6734;48.638;8.896;2022-09-01T13:40:20;3.37;;;3.07;;
13329;SDS011;6734;48.638;8.896;2022-09-01T13:42:47;2.73;;;2.50;;
13329;SDS011;6734;48.638;8.896;2022-09-01T13:45:14;3.47;;;2.60;;
13329;SDS011;6734;48.638;8.896;2022-09-01T13:47:43;3.33;;;2.87;;
13329;SDS011;6734;48.638;8.896;2022-09-01T13:50:10;2.93;;;2.70;;
13329;SDS011;6734;48.638;8.896;2022-09-01T13:52:47;3.00;;;2.80;;
13329;SDS011;6734;48.638;8.896;2022-09-01T13:55:15;2.93;;;2.60;;
13329;SDS011;6734;48.638;8.896;2022-09-01T13:57:43;3.03;;;2.53;;
13329;SDS011;6734;48.638;8.896;2022-09-01T14:00:10;2.77;;;2.57;;
13329;SDS011;6734;48.638;8.896;2022-09-01T14:02:40;2.63;;;2.43;;
13329;SDS011;6734;48.638;8.896;2022-09-01T14:05:07;2.80;;;2.60;;
13329;SDS011;6734;48.638;8.896;2022-09-01T14:07:33;2.60;;;2.40;;
13329;SDS011;6734;48.638;8.896;2022-09-01T14:09:59;3.43;;;2.80;;
13329;SDS011;6734;48.638;8.896;2022-09-01T14:12:25;3.97;;;2.80;;
13329;SDS011;6734;48.638;8.896;2022-09-01T14:14:51;3.03;;;2.73;;
13329;SDS011;6734;48.638;8.896;2022-09-01T14:17:16;3.20;;;3.00;;
13329;SDS011;6734;48.638;8.896;2022-09-01T14:19:42;3.20;;;2.90;;
13329;SDS011;6734;48.638;8.896;2022-09-01T14:22:14;3.10;;;2.80;;
13329;SDS011;6734;48.638;8.896;2022-09-01T14:24:39;3.77;;;3.30;;
13329;SDS011;6734;48.638;8.896;2022-09-01T14:27:05;3.70;;;3.20;;
13329;SDS011;6734;48.638;8.896;2022-09-01T14:29:30;3.80;;;3.50;;
13329;SDS011;6734;48.638;8.896;2022-09-01T14:31:56;3.57;;;3.27;;
13329;SDS011;6734;48.638;8.896;2022-09-01T14:34:22;4.03;;;3.63;;
13329;SDS011;6734;48.638;8.896;2022-09-01T14:36:49;3.73;;;3.20;;
13329;SDS011;6734;48.638;8.896;2022-09-01T14:39:16;3.67;;;3.37;;
13329;SDS011;6734;48.638;8.896;2022-09-01T14:41:42;3.63;;;3.33;;
13329;SDS011;6734;48.638;8.896;2022-09-01T14:44:08;3.63;;;3.33;;
13329;SDS011;6734;48.638;8.896;2022-09-01T14:46:34;4.07;;;3.40;;
13329;SDS011;6734;48.638;8.896;2022-09-01T14:49:00;3.37;;;3.07;;
13329;SDS011;6734;48.638;8.896;2022-09-01T14:51:27;3.80;;;3.20;;
13329;SDS011;6734;48.638;8.896;2022-09-01T14:53:54;3.53;;;3.13;;
13329;SDS011;6734;48.638;8.896;2022-09-01T14:56:21;3.30;;;3.00;;
13329;SDS011;6734;48.638;8.896;2022-09-01T14:58:47;3.37;;;3.07;;
13329;SDS011;6734;48.638;8.896;2022-09-01T15:01:15;3.30;;;3.00;;
13329;SDS011;6734;48.638;8.896;2022-09-01T15:03:44;3.73;;;3.03;;
13329;SDS011;6734;48.638;8.896;2022-09-01T15:06:11;4.20;;;3.30;;
13329;SDS011;6734;48.638;8.896;2022-09-01T15:08:39;4.10;;;3.70;;
13329;SDS011;6734;48.638;8.896;2022-09-01T15:11:09;3.00;;;2.80;;
13329;SDS011;6734;48.638;8.896;2022-09-01T15:13:37;4.40;;;3.30;;
13329;SDS011;6734;48.638;8.896;2022-09-01T15:16:04;3.80;;;3.50;;
13329;SDS011;6734;48.638;8.896;2022-09-01T15:18:37;3.40;;;3.10;;
13329;SDS011;6734;48.638;8.896;2022-09-01T15:21:03;3.13;;;2.83;;
13329;SDS011;6734;48.638;8.896;2022-09-01T15:23:29;3.63;;;3.20;;
13329;SDS011;6734;48.638;8.896;2022-09-01T15:25:55;3.27;;;2.93;;
13329;SDS011;6734;48.638;8.896;2022-09-01T15:28:22;3.33;;;3.03;;
13329;SDS011;6734;48.638;8.896;2022-09-01T15:30:48;3.30;;;3.00;;
13329;SDS011;6734;48.638;8.896;2022-09-01T15:33:15;4.33;;;3.10;;
13329;SDS011;6734;48.638;8.896;2022-09-01T15:35:41;3.37;;;3.10;;
13329;SDS011;6734;48.638;8.896;2022-09-01T15:38:07;4.03;;;3.40;;
13329;SDS011;6734;48.638;8.896;2022-09-01T15:40:33;3.53;;;3.23;;
13329;SDS011;6734;48.638;8.896;2022-09-01T15:42:58;3.70;;;3.40;;
13329;SDS011;6734;48.638;8.896;2022-09-01T15:45:25;3.20;;;3.00;;
13329;SDS011;6734;48.638;8.896;2022-09-01T15:47:52;3.70;;;3.40;;
13329;SDS011;6734;48.638;8.896;2022-09-01T15:50:19;4.00;;;3.37;;
13329;SDS011;6734;48.638;8.896;2022-09-01T15:52:48;3.60;;;3.30;;
13329;SDS011;6734;48.638;8.896;2022-09-01T15:55:20;3.37;;;3.07;;
13329;SDS011;6734;48.638;8.896;2022-09-01T15:57:47;3.43;;;3.13;;
13329;SDS011;6734;48.638;8.896;2022-09-01T16:00:13;3.63;;;3.33;;
13329;SDS011;6734;48.638;8.896;2022-09-01T16:02:40;3.20;;;2.90;;
13329;SDS011;6734;48.638;8.896;2022-09-01T16:05:07;3.67;;;3.37;;